CJE6 weather

Paradise Hill Airport
Paradise Hill, Saskatchewan, Canada

Public forecast

Using degrees Celsius for public forecast. Weather courtesy of forecast.io.

Closest aviation weather report (METAR) to Paradise Hill Airport

Closest report is Lloydminster Airport, 26.6 nm (49.2 km) WSW. Retrieved 2019/10/23 07:00 UTC (1 minute ago):

CYLL 230700Z AUTO 19006KT 1 1/4SM -SN OVC004 00/M00 A2992 RMK ICG SLP166

Closest aviation forecast (TAF) to Paradise Hill Airport

Closest forecast is Lloydminster Airport, 26.6 nm (49.2 km) WSW. Retrieved 2019/10/23 06:42 UTC (19 minutes ago):

TAF CYLL 230540Z 2306/2318 19007KT P6SM -RASN SCT006 OVC012 TEMPO 2306/2318 2SM -RASN BR OVC006 BECMG 2307/2309 31012G22KT RMK FCST BASED ON AUTO OBS NXT FCST BY 231200Z